sensor_id;sensor_type;location;lat;lon;timestamp;P1;durP1;ratioP1;P2;durP2;ratioP2
78783;SDS011;68127;51.050;14.084;2023-08-24T00:00:18;6.15;;;3.78;;
78783;SDS011;68127;51.050;14.084;2023-08-24T00:02:44;7.90;;;4.00;;
78783;SDS011;68127;51.050;14.084;2023-08-24T00:05:09;5.22;;;3.55;;
78783;SDS011;68127;51.050;14.084;2023-08-24T00:07:34;5.63;;;3.17;;
78783;SDS011;68127;51.050;14.084;2023-08-24T00:10:00;8.38;;;3.33;;
78783;SDS011;68127;51.050;14.084;2023-08-24T00:12:25;5.82;;;3.55;;
78783;SDS011;68127;51.050;14.084;2023-08-24T00:14:50;9.15;;;5.03;;
78783;SDS011;68127;51.050;14.084;2023-08-24T00:17:16;5.78;;;3.20;;
78783;SDS011;68127;51.050;14.084;2023-08-24T00:19:41;5.97;;;3.70;;
78783;SDS011;68127;51.050;14.084;2023-08-24T00:22:06;6.00;;;3.20;;
78783;SDS011;68127;51.050;14.084;2023-08-24T00:24:32;8.10;;;3.88;;
78783;SDS011;68127;51.050;14.084;2023-08-24T00:26:57;5.10;;;3.40;;
78783;SDS011;68127;51.050;14.084;2023-08-24T00:29:23;6.20;;;3.58;;
78783;SDS011;68127;51.050;14.084;2023-08-24T00:31:48;5.50;;;3.90;;
78783;SDS011;68127;51.050;14.084;2023-08-24T00:34:14;7.03;;;3.75;;
78783;SDS011;68127;51.050;14.084;2023-08-24T00:36:39;7.38;;;3.78;;
78783;SDS011;68127;51.050;14.084;2023-08-24T00:39:05;6.28;;;3.92;;
78783;SDS011;68127;51.050;14.084;2023-08-24T00:41:31;8.25;;;3.90;;
78783;SDS011;68127;51.050;14.084;2023-08-24T00:43:56;8.10;;;3.80;;
78783;SDS011;68127;51.050;14.084;2023-08-24T00:46:22;6.72;;;3.65;;
78783;SDS011;68127;51.050;14.084;2023-08-24T00:48:48;5.28;;;3.97;;
78783;SDS011;68127;51.050;14.084;2023-08-24T00:51:13;7.20;;;3.83;;
78783;SDS011;68127;51.050;14.084;2023-08-24T00:53:39;5.47;;;3.60;;
78783;SDS011;68127;51.050;14.084;2023-08-24T00:56:04;6.93;;;3.92;;
78783;SDS011;68127;51.050;14.084;2023-08-24T00:58:29;5.72;;;4.03;;
78783;SDS011;68127;51.050;14.084;2023-08-24T01:00:56;9.50;;;3.90;;
78783;SDS011;68127;51.050;14.084;2023-08-24T01:03:22;8.38;;;3.97;;
78783;SDS011;68127;51.050;14.084;2023-08-24T01:05:48;5.43;;;3.50;;
78783;SDS011;68127;51.050;14.084;2023-08-24T01:08:13;6.95;;;3.92;;
78783;SDS011;68127;51.050;14.084;2023-08-24T01:10:40;6.75;;;4.03;;
78783;SDS011;68127;51.050;14.084;2023-08-24T01:13:19;6.72;;;4.13;;
78783;SDS011;68127;51.050;14.084;2023-08-24T01:15:59;4.97;;;3.53;;
78783;SDS011;68127;51.050;14.084;2023-08-24T01:18:28;6.32;;;3.90;;
78783;SDS011;68127;51.050;14.084;2023-08-24T01:20:55;8.18;;;4.03;;
78783;SDS011;68127;51.050;14.084;2023-08-24T01:23:27;8.40;;;3.58;;
78783;SDS011;68127;51.050;14.084;2023-08-24T01:26:07;5.32;;;3.47;;
78783;SDS011;68127;51.050;14.084;2023-08-24T01:28:33;7.13;;;4.22;;
78783;SDS011;68127;51.050;14.084;2023-08-24T01:30:58;9.68;;;4.95;;
78783;SDS011;68127;51.050;14.084;2023-08-24T01:33:24;8.30;;;3.70;;
78783;SDS011;68127;51.050;14.084;2023-08-24T01:35:49;5.65;;;3.70;;
78783;SDS011;68127;51.050;14.084;2023-08-24T01:38:15;6.55;;;3.83;;
78783;SDS011;68127;51.050;14.084;2023-08-24T01:40:53;8.80;;;4.50;;
78783;SDS011;68127;51.050;14.084;2023-08-24T01:43:21;5.93;;;4.07;;
78783;SDS011;68127;51.050;14.084;2023-08-24T01:45:51;9.88;;;4.70;;
78783;SDS011;68127;51.050;14.084;2023-08-24T01:48:17;7.50;;;4.18;;
78783;SDS011;68127;51.050;14.084;2023-08-24T01:50:42;6.85;;;4.20;;
78783;SDS011;68127;51.050;14.084;2023-08-24T01:53:08;7.00;;;3.90;;
78783;SDS011;68127;51.050;14.084;2023-08-24T01:55:33;6.40;;;4.50;;
78783;SDS011;68127;51.050;14.084;2023-08-24T01:57:59;6.28;;;4.35;;
78783;SDS011;68127;51.050;14.084;2023-08-24T02:00:25;8.43;;;4.43;;
78783;SDS011;68127;51.050;14.084;2023-08-24T02:02:50;6.53;;;4.20;;
78783;SDS011;68127;51.050;14.084;2023-08-24T02:05:15;6.90;;;4.45;;
78783;SDS011;68127;51.050;14.084;2023-08-24T02:07:41;6.10;;;4.20;;
78783;SDS011;68127;51.050;14.084;2023-08-24T02:10:06;6.38;;;4.38;;
78783;SDS011;68127;51.050;14.084;2023-08-24T02:12:32;7.70;;;4.53;;
78783;SDS011;68127;51.050;14.084;2023-08-24T02:14:57;7.13;;;4.28;;
78783;SDS011;68127;51.050;14.084;2023-08-24T02:17:22;6.43;;;4.32;;
78783;SDS011;68127;51.050;14.084;2023-08-24T02:19:48;10.05;;;3.92;;
78783;SDS011;68127;51.050;14.084;2023-08-24T02:22:14;6.47;;;3.83;;
78783;SDS011;68127;51.050;14.084;2023-08-24T02:24:39;5.82;;;4.00;;
78783;SDS011;68127;51.050;14.084;2023-08-24T02:27:04;5.75;;;4.05;;
78783;SDS011;68127;51.050;14.084;2023-08-24T02:29:29;6.35;;;4.13;;
78783;SDS011;68127;51.050;14.084;2023-08-24T02:31:58;6.53;;;4.10;;
78783;SDS011;68127;51.050;14.084;2023-08-24T02:34:23;6.63;;;4.07;;
78783;SDS011;68127;51.050;14.084;2023-08-24T02:36:48;5.82;;;3.80;;
78783;SDS011;68127;51.050;14.084;2023-08-24T02:39:14;7.80;;;3.80;;
78783;SDS011;68127;51.050;14.084;2023-08-24T02:41:39;6.05;;;4.30;;
78783;SDS011;68127;51.050;14.084;2023-08-24T02:44:05;6.47;;;4.20;;
78783;SDS011;68127;51.050;14.084;2023-08-24T02:46:30;7.18;;;3.85;;
78783;SDS011;68127;51.050;14.084;2023-08-24T02:48:55;6.95;;;4.03;;
78783;SDS011;68127;51.050;14.084;2023-08-24T02:51:21;4.95;;;3.60;;
78783;SDS011;68127;51.050;14.084;2023-08-24T02:53:47;7.00;;;4.10;;
78783;SDS011;68127;51.050;14.084;2023-08-24T02:56:13;9.13;;;4.20;;
78783;SDS011;68127;51.050;14.084;2023-08-24T02:58:38;6.82;;;4.13;;
78783;SDS011;68127;51.050;14.084;2023-08-24T03:01:04;9.07;;;4.10;;
78783;SDS011;68127;51.050;14.084;2023-08-24T03:03:32;6.93;;;4.07;;
78783;SDS011;68127;51.050;14.084;2023-08-24T03:05:58;8.23;;;4.03;;
78783;SDS011;68127;51.050;14.084;2023-08-24T03:08:28;5.00;;;3.85;;
78783;SDS011;68127;51.050;14.084;2023-08-24T03:10:54;6.10;;;4.20;;
78783;SDS011;68127;51.050;14.084;2023-08-24T03:13:19;7.47;;;4.47;;
78783;SDS011;68127;51.050;14.084;2023-08-24T03:15:44;7.15;;;4.03;;
78783;SDS011;68127;51.050;14.084;2023-08-24T03:18:13;5.22;;;3.75;;
78783;SDS011;68127;51.050;14.084;2023-08-24T03:20:39;7.50;;;4.25;;
78783;SDS011;68127;51.050;14.084;2023-08-24T03:23:05;5.13;;;3.83;;
78783;SDS011;68127;51.050;14.084;2023-08-24T03:25:31;7.40;;;4.03;;
78783;SDS011;68127;51.050;14.084;2023-08-24T03:27:59;6.63;;;4.57;;
78783;SDS011;68127;51.050;14.084;2023-08-24T03:30:25;7.40;;;4.60;;
78783;SDS011;68127;51.050;14.084;2023-08-24T03:32:50;7.60;;;4.20;;
78783;SDS011;68127;51.050;14.084;2023-08-24T03:35:15;7.50;;;4.43;;
78783;SDS011;68127;51.050;14.084;2023-08-24T03:37:40;9.52;;;4.38;;
78783;SDS011;68127;51.050;14.084;2023-08-24T03:40:06;5.53;;;4.30;;
78783;SDS011;68127;51.050;14.084;2023-08-24T03:42:32;7.50;;;4.20;;
78783;SDS011;68127;51.050;14.084;2023-08-24T03:44:58;6.40;;;4.45;;
78783;SDS011;68127;51.050;14.084;2023-08-24T03:47:24;5.65;;;4.30;;
78783;SDS011;68127;51.050;14.084;2023-08-24T03:49:49;8.75;;;4.30;;
78783;SDS011;68127;51.050;14.084;2023-08-24T03:52:14;7.20;;;4.43;;
78783;SDS011;68127;51.050;14.084;2023-08-24T03:54:40;9.15;;;4.57;;
78783;SDS011;68127;51.050;14.084;2023-08-24T03:57:06;6.93;;;4.05;;
78783;SDS011;68127;51.050;14.084;2023-08-24T03:59:31;6.47;;;4.18;;
78783;SDS011;68127;51.050;14.084;2023-08-24T04:01:56;6.57;;;4.07;;
78783;SDS011;68127;51.050;14.084;2023-08-24T04:04:24;6.03;;;4.15;;
78783;SDS011;68127;51.050;14.084;2023-08-24T04:06:49;6.20;;;4.43;;
78783;SDS011;68127;51.050;14.084;2023-08-24T04:09:15;6.15;;;3.97;;
78783;SDS011;68127;51.050;14.084;2023-08-24T04:11:40;10.10;;;4.05;;
78783;SDS011;68127;51.050;14.084;2023-08-24T04:14:05;7.10;;;4.35;;
78783;SDS011;68127;51.050;14.084;2023-08-24T04:16:30;6.13;;;4.10;;
78783;SDS011;68127;51.050;14.084;2023-08-24T04:18:56;6.70;;;3.80;;
78783;SDS011;68127;51.050;14.084;2023-08-24T04:21:21;7.43;;;4.00;;
78783;SDS011;68127;51.050;14.084;2023-08-24T04:23:46;7.00;;;4.45;;
78783;SDS011;68127;51.050;14.084;2023-08-24T04:26:12;6.57;;;4.32;;
78783;SDS011;68127;51.050;14.084;2023-08-24T04:28:38;7.47;;;4.55;;
78783;SDS011;68127;51.050;14.084;2023-08-24T04:31:03;5.40;;;4.20;;
78783;SDS011;68127;51.050;14.084;2023-08-24T04:33:28;8.50;;;4.40;;
78783;SDS011;68127;51.050;14.084;2023-08-24T04:35:54;5.40;;;4.20;;
78783;SDS011;68127;51.050;14.084;2023-08-24T04:38:19;6.32;;;3.97;;
78783;SDS011;68127;51.050;14.084;2023-08-24T04:40:48;7.45;;;4.10;;
78783;SDS011;68127;51.050;14.084;2023-08-24T04:43:13;6.03;;;4.35;;
78783;SDS011;68127;51.050;14.084;2023-08-24T04:45:39;7.55;;;4.68;;
78783;SDS011;68127;51.050;14.084;2023-08-24T04:48:04;13.13;;;4.72;;
78783;SDS011;68127;51.050;14.084;2023-08-24T04:50:30;7.32;;;4.70;;
78783;SDS011;68127;51.050;14.084;2023-08-24T04:52:55;7.50;;;4.50;;
78783;SDS011;68127;51.050;14.084;2023-08-24T04:55:20;5.97;;;4.30;;
78783;SDS011;68127;51.050;14.084;2023-08-24T04:57:45;6.43;;;4.35;;
78783;SDS011;68127;51.050;14.084;2023-08-24T05:00:11;7.28;;;4.55;;
78783;SDS011;68127;51.050;14.084;2023-08-24T05:02:41;7.88;;;4.20;;
78783;SDS011;68127;51.050;14.084;2023-08-24T05:05:06;6.13;;;4.20;;
78783;SDS011;68127;51.050;14.084;2023-08-24T05:07:32;10.55;;;4.60;;
78783;SDS011;68127;51.050;14.084;2023-08-24T05:09:57;7.90;;;4.45;;
78783;SDS011;68127;51.050;14.084;2023-08-24T05:12:23;9.02;;;4.65;;
78783;SDS011;68127;51.050;14.084;2023-08-24T05:14:48;6.13;;;4.45;;
78783;SDS011;68127;51.050;14.084;2023-08-24T05:17:13;6.50;;;4.25;;
78783;SDS011;68127;51.050;14.084;2023-08-24T05:19:39;7.70;;;4.28;;
78783;SDS011;68127;51.050;14.084;2023-08-24T05:22:04;6.13;;;4.10;;
78783;SDS011;68127;51.050;14.084;2023-08-24T05:24:29;7.47;;;4.47;;
78783;SDS011;68127;51.050;14.084;2023-08-24T05:26:54;10.63;;;4.32;;
78783;SDS011;68127;51.050;14.084;2023-08-24T05:29:20;7.65;;;4.32;;
78783;SDS011;68127;51.050;14.084;2023-08-24T05:31:46;5.78;;;4.18;;
78783;SDS011;68127;51.050;14.084;2023-08-24T05:34:13;7.32;;;4.18;;
78783;SDS011;68127;51.050;14.084;2023-08-24T05:36:38;5.55;;;4.18;;
78783;SDS011;68127;51.050;14.084;2023-08-24T05:39:04;4.97;;;4.03;;
78783;SDS011;68127;51.050;14.084;2023-08-24T05:41:29;5.35;;;4.22;;
78783;SDS011;68127;51.050;14.084;2023-08-24T05:43:54;7.13;;;4.53;;
78783;SDS011;68127;51.050;14.084;2023-08-24T05:46:22;6.00;;;4.45;;
78783;SDS011;68127;51.050;14.084;2023-08-24T05:48:47;6.30;;;4.40;;
78783;SDS011;68127;51.050;14.084;2023-08-24T05:51:12;6.82;;;4.13;;
78783;SDS011;68127;51.050;14.084;2023-08-24T05:53:38;6.63;;;4.22;;
78783;SDS011;68127;51.050;14.084;2023-08-24T05:56:05;5.95;;;4.30;;
78783;SDS011;68127;51.050;14.084;2023-08-24T05:58:30;7.25;;;4.43;;
78783;SDS011;68127;51.050;14.084;2023-08-24T06:00:58;6.45;;;4.40;;
78783;SDS011;68127;51.050;14.084;2023-08-24T06:03:24;5.97;;;4.30;;
78783;SDS011;68127;51.050;14.084;2023-08-24T06:05:50;8.95;;;4.47;;
78783;SDS011;68127;51.050;14.084;2023-08-24T06:08:15;7.55;;;4.40;;
78783;SDS011;68127;51.050;14.084;2023-08-24T06:10:41;6.55;;;4.28;;
78783;SDS011;68127;51.050;14.084;2023-08-24T06:13:06;8.07;;;4.50;;
78783;SDS011;68127;51.050;14.084;2023-08-24T06:15:32;7.20;;;4.10;;
78783;SDS011;68127;51.050;14.084;2023-08-24T06:17:57;6.15;;;4.38;;
78783;SDS011;68127;51.050;14.084;2023-08-24T06:20:24;7.93;;;4.65;;
78783;SDS011;68127;51.050;14.084;2023-08-24T06:22:49;7.07;;;3.97;;
78783;SDS011;68127;51.050;14.084;2023-08-24T06:25:15;7.30;;;4.70;;
78783;SDS011;68127;51.050;14.084;2023-08-24T06:27:40;7.72;;;4.55;;
78783;SDS011;68127;51.050;14.084;2023-08-24T06:30:06;10.60;;;4.70;;
78783;SDS011;68127;51.050;14.084;2023-08-24T06:32:32;6.72;;;4.50;;
78783;SDS011;68127;51.050;14.084;2023-08-24T06:34:57;7.57;;;4.07;;
78783;SDS011;68127;51.050;14.084;2023-08-24T06:37:22;6.22;;;4.00;;
78783;SDS011;68127;51.050;14.084;2023-08-24T06:39:48;6.30;;;4.53;;
78783;SDS011;68127;51.050;14.084;2023-08-24T06:42:13;6.65;;;3.97;;
78783;SDS011;68127;51.050;14.084;2023-08-24T06:44:38;6.18;;;4.13;;
78783;SDS011;68127;51.050;14.084;2023-08-24T06:47:03;9.05;;;4.28;;
78783;SDS011;68127;51.050;14.084;2023-08-24T06:49:29;6.10;;;4.28;;
78783;SDS011;68127;51.050;14.084;2023-08-24T06:51:54;6.75;;;4.30;;
78783;SDS011;68127;51.050;14.084;2023-08-24T06:54:19;9.50;;;4.07;;
78783;SDS011;68127;51.050;14.084;2023-08-24T06:56:45;9.13;;;4.15;;
78783;SDS011;68127;51.050;14.084;2023-08-24T06:59:10;4.82;;;3.95;;
78783;SDS011;68127;51.050;14.084;2023-08-24T07:01:38;7.63;;;4.03;;
78783;SDS011;68127;51.050;14.084;2023-08-24T07:04:03;7.05;;;4.20;;
78783;SDS011;68127;51.050;14.084;2023-08-24T07:06:28;7.80;;;4.20;;
78783;SDS011;68127;51.050;14.084;2023-08-24T07:08:54;6.18;;;3.97;;
78783;SDS011;68127;51.050;14.084;2023-08-24T07:11:19;6.97;;;3.42;;
78783;SDS011;68127;51.050;14.084;2023-08-24T07:13:45;5.45;;;3.67;;
78783;SDS011;68127;51.050;14.084;2023-08-24T07:16:11;5.25;;;3.80;;
78783;SDS011;68127;51.050;14.084;2023-08-24T07:18:40;8.82;;;4.13;;
78783;SDS011;68127;51.050;14.084;2023-08-24T07:21:05;7.00;;;4.03;;
78783;SDS011;68127;51.050;14.084;2023-08-24T07:23:31;7.50;;;4.22;;
78783;SDS011;68127;51.050;14.084;2023-08-24T07:25:56;5.53;;;3.33;;
78783;SDS011;68127;51.050;14.084;2023-08-24T07:28:21;5.82;;;3.88;;
78783;SDS011;68127;51.050;14.084;2023-08-24T07:30:47;8.20;;;3.80;;
78783;SDS011;68127;51.050;14.084;2023-08-24T07:33:12;6.88;;;3.72;;
78783;SDS011;68127;51.050;14.084;2023-08-24T07:35:44;6.16;;;3.86;;
78783;SDS011;68127;51.050;14.084;2023-08-24T07:38:09;6.60;;;3.60;;
78783;SDS011;68127;51.050;14.084;2023-08-24T07:40:34;8.57;;;3.67;;
78783;SDS011;68127;51.050;14.084;2023-08-24T07:42:59;5.63;;;3.60;;
78783;SDS011;68127;51.050;14.084;2023-08-24T07:45:25;5.50;;;3.92;;
78783;SDS011;68127;51.050;14.084;2023-08-24T07:47:51;5.78;;;3.47;;
78783;SDS011;68127;51.050;14.084;2023-08-24T07:50:16;5.97;;;3.58;;
78783;SDS011;68127;51.050;14.084;2023-08-24T07:52:41;8.40;;;3.72;;
78783;SDS011;68127;51.050;14.084;2023-08-24T07:55:07;4.75;;;3.10;;
78783;SDS011;68127;51.050;14.084;2023-08-24T07:57:36;6.28;;;3.45;;
78783;SDS011;68127;51.050;14.084;2023-08-24T08:00:03;6.85;;;3.15;;
78783;SDS011;68127;51.050;14.084;2023-08-24T08:02:29;6.70;;;3.20;;
78783;SDS011;68127;51.050;14.084;2023-08-24T08:04:58;5.63;;;3.40;;
78783;SDS011;68127;51.050;14.084;2023-08-24T08:07:24;8.00;;;3.60;;
78783;SDS011;68127;51.050;14.084;2023-08-24T08:09:50;6.93;;;3.47;;
78783;SDS011;68127;51.050;14.084;2023-08-24T08:12:15;7.63;;;3.45;;
78783;SDS011;68127;51.050;14.084;2023-08-24T08:14:41;6.30;;;3.33;;
78783;SDS011;68127;51.050;14.084;2023-08-24T08:17:06;5.97;;;3.20;;
78783;SDS011;68127;51.050;14.084;2023-08-24T08:19:31;7.65;;;3.35;;
78783;SDS011;68127;51.050;14.084;2023-08-24T08:21:57;4.57;;;3.10;;
78783;SDS011;68127;51.050;14.084;2023-08-24T08:24:22;7.00;;;3.70;;
78783;SDS011;68127;51.050;14.084;2023-08-24T08:26:47;6.25;;;3.40;;
78783;SDS011;68127;51.050;14.084;2023-08-24T08:29:13;5.05;;;3.42;;
78783;SDS011;68127;51.050;14.084;2023-08-24T08:31:40;5.13;;;3.33;;
78783;SDS011;68127;51.050;14.084;2023-08-24T08:34:10;5.18;;;3.10;;
78783;SDS011;68127;51.050;14.084;2023-08-24T08:36:35;7.03;;;3.30;;
78783;SDS011;68127;51.050;14.084;2023-08-24T08:39:01;5.85;;;3.20;;
78783;SDS011;68127;51.050;14.084;2023-08-24T08:41:30;7.85;;;3.00;;
78783;SDS011;68127;51.050;14.084;2023-08-24T08:43:56;5.38;;;2.92;;
78783;SDS011;68127;51.050;14.084;2023-08-24T08:46:22;6.38;;;3.47;;
78783;SDS011;68127;51.050;14.084;2023-08-24T08:48:47;6.38;;;3.30;;
78783;SDS011;68127;51.050;14.084;2023-08-24T08:51:14;7.57;;;3.47;;
78783;SDS011;68127;51.050;14.084;2023-08-24T08:53:41;6.38;;;3.55;;
78783;SDS011;68127;51.050;14.084;2023-08-24T08:56:06;6.95;;;3.25;;
78783;SDS011;68127;51.050;14.084;2023-08-24T08:58:32;6.57;;;3.20;;
78783;SDS011;68127;51.050;14.084;2023-08-24T09:00:59;6.10;;;3.20;;
78783;SDS011;68127;51.050;14.084;2023-08-24T09:03:26;6.00;;;3.50;;
78783;SDS011;68127;51.050;14.084;2023-08-24T09:05:53;5.05;;;3.22;;
78783;SDS011;68127;51.050;14.084;2023-08-24T09:08:18;7.40;;;3.80;;
78783;SDS011;68127;51.050;14.084;2023-08-24T09:10:45;5.50;;;3.28;;
78783;SDS011;68127;51.050;14.084;2023-08-24T09:13:10;6.10;;;3.22;;
78783;SDS011;68127;51.050;14.084;2023-08-24T09:15:35;5.25;;;3.22;;
78783;SDS011;68127;51.050;14.084;2023-08-24T09:18:01;6.85;;;3.30;;
78783;SDS011;68127;51.050;14.084;2023-08-24T09:20:27;11.80;;;3.38;;
78783;SDS011;68127;51.050;14.084;2023-08-24T09:22:54;8.88;;;3.25;;
78783;SDS011;68127;51.050;14.084;2023-08-24T09:25:21;5.97;;;2.95;;
78783;SDS011;68127;51.050;14.084;2023-08-24T09:27:55;4.50;;;2.83;;
78783;SDS011;68127;51.050;14.084;2023-08-24T09:30:30;5.65;;;3.10;;
78783;SDS011;68127;51.050;14.084;2023-08-24T09:33:00;6.93;;;3.13;;
78783;SDS011;68127;51.050;14.084;2023-08-24T09:35:33;5.38;;;2.60;;
78783;SDS011;68127;51.050;14.084;2023-08-24T09:38:00;5.75;;;2.95;;
78783;SDS011;68127;51.050;14.084;2023-08-24T09:40:25;9.00;;;2.92;;
78783;SDS011;68127;51.050;14.084;2023-08-24T09:42:51;7.88;;;2.92;;
78783;SDS011;68127;51.050;14.084;2023-08-24T09:45:16;7.43;;;3.20;;
78783;SDS011;68127;51.050;14.084;2023-08-24T09:47:45;5.05;;;3.28;;
78783;SDS011;68127;51.050;14.084;2023-08-24T09:50:12;8.35;;;3.33;;
78783;SDS011;68127;51.050;14.084;2023-08-24T09:52:37;5.63;;;2.78;;
78783;SDS011;68127;51.050;14.084;2023-08-24T09:55:03;6.43;;;2.95;;
78783;SDS011;68127;51.050;14.084;2023-08-24T09:57:34;6.40;;;2.90;;
78783;SDS011;68127;51.050;14.084;2023-08-24T10:00:03;5.40;;;2.63;;
78783;SDS011;68127;51.050;14.084;2023-08-24T10:02:59;5.05;;;2.90;;
78783;SDS011;68127;51.050;14.084;2023-08-24T10:05:26;4.70;;;2.75;;
78783;SDS011;68127;51.050;14.084;2023-08-24T10:07:53;5.28;;;2.70;;
78783;SDS011;68127;51.050;14.084;2023-08-24T10:10:20;7.13;;;3.03;;
78783;SDS011;68127;51.050;14.084;2023-08-24T10:12:47;3.80;;;2.40;;
78783;SDS011;68127;51.050;14.084;2023-08-24T10:15:18;5.30;;;2.90;;
78783;SDS011;68127;51.050;14.084;2023-08-24T10:17:43;4.32;;;2.60;;
78783;SDS011;68127;51.050;14.084;2023-08-24T10:20:10;18.02;;;3.60;;
78783;SDS011;68127;51.050;14.084;2023-08-24T10:22:36;6.25;;;2.60;;
78783;SDS011;68127;51.050;14.084;2023-08-24T10:25:02;4.57;;;2.58;;
78783;SDS011;68127;51.050;14.084;2023-08-24T10:27:28;5.38;;;2.78;;
78783;SDS011;68127;51.050;14.084;2023-08-24T10:29:54;6.25;;;2.70;;
78783;SDS011;68127;51.050;14.084;2023-08-24T10:32:20;8.80;;;3.08;;
78783;SDS011;68127;51.050;14.084;2023-08-24T10:34:47;5.03;;;2.60;;
78783;SDS011;68127;51.050;14.084;2023-08-24T10:37:12;5.70;;;2.97;;
78783;SDS011;68127;51.050;14.084;2023-08-24T10:39:38;6.95;;;2.67;;
78783;SDS011;68127;51.050;14.084;2023-08-24T10:42:12;5.80;;;2.80;;
78783;SDS011;68127;51.050;14.084;2023-08-24T10:44:39;5.43;;;2.88;;
78783;SDS011;68127;51.050;14.084;2023-08-24T10:47:06;6.80;;;2.72;;
78783;SDS011;68127;51.050;14.084;2023-08-24T10:49:31;7.97;;;3.10;;
78783;SDS011;68127;51.050;14.084;2023-08-24T10:51:57;6.20;;;3.00;;
78783;SDS011;68127;51.050;14.084;2023-08-24T10:54:29;6.50;;;2.92;;
78783;SDS011;68127;51.050;14.084;2023-08-24T10:56:55;5.45;;;2.83;;
78783;SDS011;68127;51.050;14.084;2023-08-24T10:59:23;5.70;;;3.00;;
78783;SDS011;68127;51.050;14.084;2023-08-24T11:04:17;5.22;;;2.70;;
78783;SDS011;68127;51.050;14.084;2023-08-24T11:06:53;4.60;;;2.65;;
78783;SDS011;68127;51.050;14.084;2023-08-24T11:09:22;6.45;;;2.90;;
78783;SDS011;68127;51.050;14.084;2023-08-24T11:11:55;5.68;;;2.90;;
78783;SDS011;68127;51.050;14.084;2023-08-24T11:14:22;7.38;;;2.90;;
78783;SDS011;68127;51.050;14.084;2023-08-24T11:16:48;6.07;;;2.70;;
78783;SDS011;68127;51.050;14.084;2023-08-24T11:19:14;8.02;;;2.90;;
78783;SDS011;68127;51.050;14.084;2023-08-24T11:21:42;5.43;;;3.00;;
78783;SDS011;68127;51.050;14.084;2023-08-24T11:24:14;5.13;;;3.00;;
78783;SDS011;68127;51.050;14.084;2023-08-24T11:26:44;5.55;;;2.78;;
78783;SDS011;68127;51.050;14.084;2023-08-24T11:31:39;6.07;;;2.22;;
78783;SDS011;68127;51.050;14.084;2023-08-24T11:34:05;6.03;;;2.70;;
78783;SDS011;68127;51.050;14.084;2023-08-24T11:36:31;5.22;;;2.72;;
78783;SDS011;68127;51.050;14.084;2023-08-24T11:38:57;5.82;;;2.70;;
78783;SDS011;68127;51.050;14.084;2023-08-24T11:41:23;5.05;;;2.67;;
78783;SDS011;68127;51.050;14.084;2023-08-24T11:43:49;6.25;;;2.90;;
78783;SDS011;68127;51.050;14.084;2023-08-24T11:46:17;4.40;;;2.67;;
78783;SDS011;68127;51.050;14.084;2023-08-24T11:48:43;5.47;;;2.67;;
78783;SDS011;68127;51.050;14.084;2023-08-24T11:51:09;5.38;;;2.55;;
78783;SDS011;68127;51.050;14.084;2023-08-24T11:53:37;5.72;;;2.60;;
78783;SDS011;68127;51.050;14.084;2023-08-24T11:56:04;10.45;;;2.78;;
78783;SDS011;68127;51.050;14.084;2023-08-24T11:58:30;6.57;;;2.88;;
78783;SDS011;68127;51.050;14.084;2023-08-24T12:00:56;5.43;;;2.75;;
78783;SDS011;68127;51.050;14.084;2023-08-24T12:03:21;6.13;;;2.70;;
78783;SDS011;68127;51.050;14.084;2023-08-24T12:05:47;5.68;;;2.70;;
78783;SDS011;68127;51.050;14.084;2023-08-24T12:08:12;7.38;;;2.65;;
78783;SDS011;68127;51.050;14.084;2023-08-24T12:10:43;7.18;;;2.63;;
78783;SDS011;68127;51.050;14.084;2023-08-24T12:13:09;7.63;;;2.90;;
78783;SDS011;68127;51.050;14.084;2023-08-24T12:15:35;5.68;;;2.88;;
78783;SDS011;68127;51.050;14.084;2023-08-24T12:18:10;6.70;;;2.95;;
78783;SDS011;68127;51.050;14.084;2023-08-24T12:20:36;4.78;;;2.63;;
78783;SDS011;68127;51.050;14.084;2023-08-24T12:23:02;5.82;;;2.85;;
78783;SDS011;68127;51.050;14.084;2023-08-24T12:25:27;5.38;;;2.63;;
78783;SDS011;68127;51.050;14.084;2023-08-24T12:27:53;6.90;;;2.90;;
78783;SDS011;68127;51.050;14.084;2023-08-24T12:30:43;5.70;;;2.90;;
78783;SDS011;68127;51.050;14.084;2023-08-24T12:33:24;6.55;;;2.80;;
78783;SDS011;68127;51.050;14.084;2023-08-24T12:35:50;5.13;;;2.75;;
78783;SDS011;68127;51.050;14.084;2023-08-24T12:38:16;8.38;;;2.90;;
78783;SDS011;68127;51.050;14.084;2023-08-24T12:40:41;6.15;;;3.00;;
78783;SDS011;68127;51.050;14.084;2023-08-24T12:43:07;4.55;;;2.80;;
78783;SDS011;68127;51.050;14.084;2023-08-24T12:45:32;5.68;;;2.90;;
78783;SDS011;68127;51.050;14.084;2023-08-24T12:47:57;5.43;;;2.70;;
78783;SDS011;68127;51.050;14.084;2023-08-24T12:50:23;6.15;;;3.00;;
78783;SDS011;68127;51.050;14.084;2023-08-24T12:52:48;5.32;;;2.85;;
78783;SDS011;68127;51.050;14.084;2023-08-24T12:55:14;4.93;;;2.80;;
78783;SDS011;68127;51.050;14.084;2023-08-24T12:57:39;6.28;;;3.00;;
78783;SDS011;68127;51.050;14.084;2023-08-24T13:00:05;6.97;;;3.30;;
78783;SDS011;68127;51.050;14.084;2023-08-24T13:02:33;6.10;;;2.90;;
78783;SDS011;68127;51.050;14.084;2023-08-24T13:04:58;5.15;;;2.90;;
78783;SDS011;68127;51.050;14.084;2023-08-24T13:07:26;5.40;;;2.90;;
78783;SDS011;68127;51.050;14.084;2023-08-24T13:09:51;7.60;;;2.90;;
78783;SDS011;68127;51.050;14.084;2023-08-24T13:12:16;6.05;;;2.88;;
78783;SDS011;68127;51.050;14.084;2023-08-24T13:14:41;5.75;;;2.92;;
78783;SDS011;68127;51.050;14.084;2023-08-24T13:17:07;6.25;;;3.25;;
78783;SDS011;68127;51.050;14.084;2023-08-24T13:19:32;5.30;;;2.85;;
78783;SDS011;68127;51.050;14.084;2023-08-24T13:21:57;9.20;;;3.00;;
78783;SDS011;68127;51.050;14.084;2023-08-24T13:24:23;5.30;;;3.10;;
78783;SDS011;68127;51.050;14.084;2023-08-24T13:26:48;7.00;;;3.13;;
78783;SDS011;68127;51.050;14.084;2023-08-24T13:29:14;6.45;;;3.08;;
78783;SDS011;68127;51.050;14.084;2023-08-24T13:31:39;5.72;;;2.90;;
78783;SDS011;68127;51.050;14.084;2023-08-24T13:34:04;6.15;;;2.90;;
78783;SDS011;68127;51.050;14.084;2023-08-24T13:36:32;10.60;;;3.15;;
78783;SDS011;68127;51.050;14.084;2023-08-24T13:38:57;6.40;;;2.95;;
78783;SDS011;68127;51.050;14.084;2023-08-24T13:41:22;7.22;;;3.40;;
78783;SDS011;68127;51.050;14.084;2023-08-24T13:43:48;4.85;;;3.20;;
78783;SDS011;68127;51.050;14.084;2023-08-24T13:46:13;10.63;;;3.08;;
78783;SDS011;68127;51.050;14.084;2023-08-24T13:48:38;5.80;;;3.38;;
78783;SDS011;68127;51.050;14.084;2023-08-24T13:51:04;6.63;;;3.30;;
78783;SDS011;68127;51.050;14.084;2023-08-24T13:53:29;6.38;;;3.40;;
78783;SDS011;68127;51.050;14.084;2023-08-24T13:55:54;6.28;;;3.38;;
78783;SDS011;68127;51.050;14.084;2023-08-24T13:58:19;8.23;;;3.83;;
78783;SDS011;68127;51.050;14.084;2023-08-24T14:00:45;8.32;;;4.10;;
78783;SDS011;68127;51.050;14.084;2023-08-24T14:03:10;5.25;;;3.63;;
78783;SDS011;68127;51.050;14.084;2023-08-24T14:05:39;6.78;;;3.60;;
78783;SDS011;68127;51.050;14.084;2023-08-24T14:08:04;7.38;;;4.00;;
78783;SDS011;68127;51.050;14.084;2023-08-24T14:10:30;5.95;;;3.90;;
78783;SDS011;68127;51.050;14.084;2023-08-24T14:12:56;7.00;;;3.70;;
78783;SDS011;68127;51.050;14.084;2023-08-24T14:15:21;6.47;;;3.83;;
78783;SDS011;68127;51.050;14.084;2023-08-24T14:17:46;8.20;;;3.80;;
78783;SDS011;68127;51.050;14.084;2023-08-24T14:20:11;6.97;;;3.80;;
78783;SDS011;68127;51.050;14.084;2023-08-24T14:22:37;7.63;;;4.30;;
78783;SDS011;68127;51.050;14.084;2023-08-24T14:25:03;5.60;;;3.63;;
78783;SDS011;68127;51.050;14.084;2023-08-24T14:27:28;6.57;;;3.25;;
78783;SDS011;68127;51.050;14.084;2023-08-24T14:29:53;6.35;;;4.10;;
78783;SDS011;68127;51.050;14.084;2023-08-24T14:32:19;7.53;;;3.75;;